sensor_id;sensor_type;location;lat;lon;timestamp;P1;durP1;ratioP1;P2;durP2;ratioP2
6105;SDS011;3083;51.508;7.966;2022-09-09T00:00:26;6.50;;;2.20;;
6105;SDS011;3083;51.508;7.966;2022-09-09T00:02:58;5.10;;;2.33;;
6105;SDS011;3083;51.508;7.966;2022-09-09T00:05:31;4.73;;;2.27;;
6105;SDS011;3083;51.508;7.966;2022-09-09T00:08:07;5.20;;;2.33;;
6105;SDS011;3083;51.508;7.966;2022-09-09T00:10:44;5.07;;;1.90;;
6105;SDS011;3083;51.508;7.966;2022-09-09T00:13:18;6.60;;;2.20;;
6105;SDS011;3083;51.508;7.966;2022-09-09T00:15:53;5.40;;;2.00;;
6105;SDS011;3083;51.508;7.966;2022-09-09T00:18:24;5.57;;;2.10;;
6105;SDS011;3083;51.508;7.966;2022-09-09T00:20:58;5.20;;;2.10;;
6105;SDS011;3083;51.508;7.966;2022-09-09T00:23:32;5.37;;;2.07;;
6105;SDS011;3083;51.508;7.966;2022-09-09T00:26:03;5.63;;;2.00;;
6105;SDS011;3083;51.508;7.966;2022-09-09T00:28:36;4.63;;;2.00;;
6105;SDS011;3083;51.508;7.966;2022-09-09T00:31:11;5.17;;;2.30;;
6105;SDS011;3083;51.508;7.966;2022-09-09T00:33:39;6.27;;;2.57;;
6105;SDS011;3083;51.508;7.966;2022-09-09T00:36:09;4.80;;;2.20;;
6105;SDS011;3083;51.508;7.966;2022-09-09T00:38:42;5.40;;;2.00;;
6105;SDS011;3083;51.508;7.966;2022-09-09T00:41:14;5.87;;;2.20;;
6105;SDS011;3083;51.508;7.966;2022-09-09T00:43:47;5.93;;;2.10;;
6105;SDS011;3083;51.508;7.966;2022-09-09T00:46:30;6.60;;;2.10;;
6105;SDS011;3083;51.508;7.966;2022-09-09T00:49:23;4.87;;;2.30;;
6105;SDS011;3083;51.508;7.966;2022-09-09T00:52:03;6.70;;;2.40;;
6105;SDS011;3083;51.508;7.966;2022-09-09T00:54:47;4.80;;;2.27;;
6105;SDS011;3083;51.508;7.966;2022-09-09T00:57:23;4.33;;;2.07;;
6105;SDS011;3083;51.508;7.966;2022-09-09T00:59:56;6.50;;;2.30;;
6105;SDS011;3083;51.508;7.966;2022-09-09T01:02:30;6.57;;;2.17;;
6105;SDS011;3083;51.508;7.966;2022-09-09T01:05:05;6.10;;;2.60;;
6105;SDS011;3083;51.508;7.966;2022-09-09T01:07:38;4.70;;;2.50;;
6105;SDS011;3083;51.508;7.966;2022-09-09T01:10:14;3.90;;;2.10;;
6105;SDS011;3083;51.508;7.966;2022-09-09T01:12:50;5.03;;;2.20;;
6105;SDS011;3083;51.508;7.966;2022-09-09T01:15:19;4.90;;;2.37;;
6105;SDS011;3083;51.508;7.966;2022-09-09T01:17:52;4.70;;;2.00;;
6105;SDS011;3083;51.508;7.966;2022-09-09T01:20:24;4.87;;;2.17;;
6105;SDS011;3083;51.508;7.966;2022-09-09T01:23:02;7.10;;;2.43;;
6105;SDS011;3083;51.508;7.966;2022-09-09T01:28:37;6.57;;;2.30;;
6105;SDS011;3083;51.508;7.966;2022-09-09T01:31:06;4.10;;;2.37;;
6105;SDS011;3083;51.508;7.966;2022-09-09T01:33:37;4.47;;;2.07;;
6105;SDS011;3083;51.508;7.966;2022-09-09T01:36:04;8.20;;;2.37;;
6105;SDS011;3083;51.508;7.966;2022-09-09T01:38:35;5.00;;;2.10;;
6105;SDS011;3083;51.508;7.966;2022-09-09T01:41:02;6.60;;;2.40;;
6105;SDS011;3083;51.508;7.966;2022-09-09T01:43:31;4.60;;;2.20;;
6105;SDS011;3083;51.508;7.966;2022-09-09T01:45:58;5.93;;;2.30;;
6105;SDS011;3083;51.508;7.966;2022-09-09T01:48:27;5.90;;;2.40;;
6105;SDS011;3083;51.508;7.966;2022-09-09T01:50:55;10.60;;;2.50;;
6105;SDS011;3083;51.508;7.966;2022-09-09T01:53:22;4.47;;;2.20;;
6105;SDS011;3083;51.508;7.966;2022-09-09T01:55:51;4.37;;;2.50;;
6105;SDS011;3083;51.508;7.966;2022-09-09T01:58:29;4.37;;;2.20;;
6105;SDS011;3083;51.508;7.966;2022-09-09T02:01:06;6.20;;;2.43;;
6105;SDS011;3083;51.508;7.966;2022-09-09T02:03:41;3.97;;;2.17;;
6105;SDS011;3083;51.508;7.966;2022-09-09T02:06:14;3.80;;;2.00;;
6105;SDS011;3083;51.508;7.966;2022-09-09T02:08:50;4.47;;;2.20;;
6105;SDS011;3083;51.508;7.966;2022-09-09T02:11:21;8.17;;;2.37;;
6105;SDS011;3083;51.508;7.966;2022-09-09T02:13:52;4.47;;;2.10;;
6105;SDS011;3083;51.508;7.966;2022-09-09T02:16:24;3.20;;;1.80;;
6105;SDS011;3083;51.508;7.966;2022-09-09T02:18:55;8.93;;;2.30;;
6105;SDS011;3083;51.508;7.966;2022-09-09T02:21:27;3.90;;;2.17;;
6105;SDS011;3083;51.508;7.966;2022-09-09T02:23:56;8.63;;;2.47;;
6105;SDS011;3083;51.508;7.966;2022-09-09T02:26:29;6.27;;;2.20;;
6105;SDS011;3083;51.508;7.966;2022-09-09T02:29:01;4.70;;;2.10;;
6105;SDS011;3083;51.508;7.966;2022-09-09T02:31:30;7.27;;;2.10;;
6105;SDS011;3083;51.508;7.966;2022-09-09T02:33:58;3.47;;;2.20;;
6105;SDS011;3083;51.508;7.966;2022-09-09T02:36:28;5.17;;;2.53;;
6105;SDS011;3083;51.508;7.966;2022-09-09T02:38:59;7.50;;;2.50;;
6105;SDS011;3083;51.508;7.966;2022-09-09T02:41:28;5.70;;;2.47;;
6105;SDS011;3083;51.508;7.966;2022-09-09T02:44:00;8.40;;;3.20;;
6105;SDS011;3083;51.508;7.966;2022-09-09T02:46:32;8.47;;;2.40;;
6105;SDS011;3083;51.508;7.966;2022-09-09T02:49:08;9.70;;;2.20;;
6105;SDS011;3083;51.508;7.966;2022-09-09T02:51:39;4.33;;;2.10;;
6105;SDS011;3083;51.508;7.966;2022-09-09T02:54:16;5.63;;;2.40;;
6105;SDS011;3083;51.508;7.966;2022-09-09T02:56:51;6.57;;;2.33;;
6105;SDS011;3083;51.508;7.966;2022-09-09T02:59:22;4.43;;;2.03;;
6105;SDS011;3083;51.508;7.966;2022-09-09T03:01:52;3.33;;;2.37;;
6105;SDS011;3083;51.508;7.966;2022-09-09T03:04:19;4.63;;;2.40;;
6105;SDS011;3083;51.508;7.966;2022-09-09T03:06:46;4.13;;;2.27;;
6105;SDS011;3083;51.508;7.966;2022-09-09T03:09:13;8.13;;;2.57;;
6105;SDS011;3083;51.508;7.966;2022-09-09T03:11:40;5.20;;;2.10;;
6105;SDS011;3083;51.508;7.966;2022-09-09T03:14:07;5.40;;;2.30;;
6105;SDS011;3083;51.508;7.966;2022-09-09T03:16:36;4.60;;;2.40;;
6105;SDS011;3083;51.508;7.966;2022-09-09T03:19:03;6.50;;;2.30;;
6105;SDS011;3083;51.508;7.966;2022-09-09T03:21:31;9.53;;;2.50;;
6105;SDS011;3083;51.508;7.966;2022-09-09T03:23:58;5.47;;;2.47;;
6105;SDS011;3083;51.508;7.966;2022-09-09T03:26:28;8.00;;;3.10;;
6105;SDS011;3083;51.508;7.966;2022-09-09T03:28:55;8.00;;;2.53;;
6105;SDS011;3083;51.508;7.966;2022-09-09T03:31:22;6.63;;;2.60;;
6105;SDS011;3083;51.508;7.966;2022-09-09T03:33:50;5.57;;;2.53;;
6105;SDS011;3083;51.508;7.966;2022-09-09T03:36:17;7.83;;;2.30;;
6105;SDS011;3083;51.508;7.966;2022-09-09T03:38:44;5.20;;;2.67;;
6105;SDS011;3083;51.508;7.966;2022-09-09T03:41:11;6.13;;;2.57;;
6105;SDS011;3083;51.508;7.966;2022-09-09T03:43:38;7.83;;;2.87;;
6105;SDS011;3083;51.508;7.966;2022-09-09T03:46:05;4.80;;;2.80;;
6105;SDS011;3083;51.508;7.966;2022-09-09T03:48:32;3.10;;;2.30;;
6105;SDS011;3083;51.508;7.966;2022-09-09T03:51:00;8.30;;;2.80;;
6105;SDS011;3083;51.508;7.966;2022-09-09T03:53:28;4.43;;;2.50;;
6105;SDS011;3083;51.508;7.966;2022-09-09T03:55:56;6.90;;;2.60;;
6105;SDS011;3083;51.508;7.966;2022-09-09T03:58:24;5.30;;;2.63;;
6105;SDS011;3083;51.508;7.966;2022-09-09T04:00:53;5.80;;;2.60;;
6105;SDS011;3083;51.508;7.966;2022-09-09T04:03:20;4.17;;;2.20;;
6105;SDS011;3083;51.508;7.966;2022-09-09T04:05:49;4.73;;;2.60;;
6105;SDS011;3083;51.508;7.966;2022-09-09T04:08:18;4.87;;;2.60;;
6105;SDS011;3083;51.508;7.966;2022-09-09T04:10:45;6.20;;;2.70;;
6105;SDS011;3083;51.508;7.966;2022-09-09T04:13:13;5.33;;;2.33;;
6105;SDS011;3083;51.508;7.966;2022-09-09T04:15:42;5.20;;;2.47;;
6105;SDS011;3083;51.508;7.966;2022-09-09T04:18:10;5.90;;;2.70;;
6105;SDS011;3083;51.508;7.966;2022-09-09T04:20:37;8.27;;;2.60;;
6105;SDS011;3083;51.508;7.966;2022-09-09T04:23:05;6.03;;;2.40;;
6105;SDS011;3083;51.508;7.966;2022-09-09T04:25:33;7.10;;;3.30;;
6105;SDS011;3083;51.508;7.966;2022-09-09T04:28:00;4.47;;;3.00;;
6105;SDS011;3083;51.508;7.966;2022-09-09T04:30:27;8.63;;;3.40;;
6105;SDS011;3083;51.508;7.966;2022-09-09T04:32:54;8.57;;;4.20;;
6105;SDS011;3083;51.508;7.966;2022-09-09T04:35:22;6.40;;;3.10;;
6105;SDS011;3083;51.508;7.966;2022-09-09T04:37:49;5.57;;;2.90;;
6105;SDS011;3083;51.508;7.966;2022-09-09T04:40:16;11.63;;;3.60;;
6105;SDS011;3083;51.508;7.966;2022-09-09T04:42:44;11.10;;;3.50;;
6105;SDS011;3083;51.508;7.966;2022-09-09T04:45:13;7.00;;;2.80;;
6105;SDS011;3083;51.508;7.966;2022-09-09T04:47:40;9.80;;;3.57;;
6105;SDS011;3083;51.508;7.966;2022-09-09T04:50:08;11.13;;;3.50;;
6105;SDS011;3083;51.508;7.966;2022-09-09T04:52:35;6.90;;;3.87;;
6105;SDS011;3083;51.508;7.966;2022-09-09T04:55:02;5.63;;;3.63;;
6105;SDS011;3083;51.508;7.966;2022-09-09T04:57:30;7.27;;;3.23;;
6105;SDS011;3083;51.508;7.966;2022-09-09T04:59:59;7.70;;;3.20;;
6105;SDS011;3083;51.508;7.966;2022-09-09T05:02:26;5.87;;;2.80;;
6105;SDS011;3083;51.508;7.966;2022-09-09T05:04:54;7.87;;;3.23;;
6105;SDS011;3083;51.508;7.966;2022-09-09T05:07:21;5.43;;;2.90;;
6105;SDS011;3083;51.508;7.966;2022-09-09T05:09:48;7.10;;;3.20;;
6105;SDS011;3083;51.508;7.966;2022-09-09T05:12:15;10.13;;;2.77;;
6105;SDS011;3083;51.508;7.966;2022-09-09T05:14:42;8.60;;;3.10;;
6105;SDS011;3083;51.508;7.966;2022-09-09T05:17:11;8.93;;;2.90;;
6105;SDS011;3083;51.508;7.966;2022-09-09T05:19:38;6.47;;;2.60;;
6105;SDS011;3083;51.508;7.966;2022-09-09T05:22:05;6.07;;;3.20;;
6105;SDS011;3083;51.508;7.966;2022-09-09T05:24:32;6.97;;;3.13;;
6105;SDS011;3083;51.508;7.966;2022-09-09T05:26:59;10.70;;;3.10;;
6105;SDS011;3083;51.508;7.966;2022-09-09T05:29:27;5.67;;;2.90;;
6105;SDS011;3083;51.508;7.966;2022-09-09T05:31:54;6.50;;;3.30;;
6105;SDS011;3083;51.508;7.966;2022-09-09T05:34:22;4.20;;;2.60;;
6105;SDS011;3083;51.508;7.966;2022-09-09T05:36:49;5.70;;;2.80;;
6105;SDS011;3083;51.508;7.966;2022-09-09T05:39:17;6.43;;;2.40;;
6105;SDS011;3083;51.508;7.966;2022-09-09T05:41:44;7.90;;;2.43;;
6105;SDS011;3083;51.508;7.966;2022-09-09T05:44:11;5.90;;;2.53;;
6105;SDS011;3083;51.508;7.966;2022-09-09T05:46:38;5.13;;;3.00;;
6105;SDS011;3083;51.508;7.966;2022-09-09T05:49:05;10.53;;;3.50;;
6105;SDS011;3083;51.508;7.966;2022-09-09T05:51:34;12.20;;;3.60;;
6105;SDS011;3083;51.508;7.966;2022-09-09T05:54:01;4.40;;;2.80;;
6105;SDS011;3083;51.508;7.966;2022-09-09T05:56:28;6.10;;;2.70;;
6105;SDS011;3083;51.508;7.966;2022-09-09T05:58:57;6.73;;;2.90;;
6105;SDS011;3083;51.508;7.966;2022-09-09T06:01:27;5.60;;;2.53;;
6105;SDS011;3083;51.508;7.966;2022-09-09T06:03:56;7.93;;;2.60;;
6105;SDS011;3083;51.508;7.966;2022-09-09T06:06:24;3.60;;;2.53;;
6105;SDS011;3083;51.508;7.966;2022-09-09T06:08:53;5.40;;;2.87;;
6105;SDS011;3083;51.508;7.966;2022-09-09T06:11:23;7.60;;;2.80;;
6105;SDS011;3083;51.508;7.966;2022-09-09T06:13:51;4.37;;;2.50;;
6105;SDS011;3083;51.508;7.966;2022-09-09T06:16:20;6.47;;;2.90;;
6105;SDS011;3083;51.508;7.966;2022-09-09T06:18:49;6.33;;;2.40;;
6105;SDS011;3083;51.508;7.966;2022-09-09T06:21:17;5.87;;;2.57;;
6105;SDS011;3083;51.508;7.966;2022-09-09T06:23:45;7.60;;;2.43;;
6105;SDS011;3083;51.508;7.966;2022-09-09T06:26:15;7.40;;;2.80;;
6105;SDS011;3083;51.508;7.966;2022-09-09T06:28:43;4.50;;;2.50;;
6105;SDS011;3083;51.508;7.966;2022-09-09T06:31:13;6.17;;;2.73;;
6105;SDS011;3083;51.508;7.966;2022-09-09T06:33:42;6.70;;;2.80;;
6105;SDS011;3083;51.508;7.966;2022-09-09T06:36:11;6.23;;;2.60;;
6105;SDS011;3083;51.508;7.966;2022-09-09T06:38:40;5.00;;;2.50;;
6105;SDS011;3083;51.508;7.966;2022-09-09T06:41:08;6.40;;;2.83;;
6105;SDS011;3083;51.508;7.966;2022-09-09T06:43:37;8.27;;;2.87;;
6105;SDS011;3083;51.508;7.966;2022-09-09T06:46:06;5.60;;;2.87;;
6105;SDS011;3083;51.508;7.966;2022-09-09T06:48:34;6.80;;;2.60;;
6105;SDS011;3083;51.508;7.966;2022-09-09T06:51:02;5.00;;;2.20;;
6105;SDS011;3083;51.508;7.966;2022-09-09T06:53:30;7.57;;;1.90;;
6105;SDS011;3083;51.508;7.966;2022-09-09T06:55:59;5.90;;;1.97;;
6105;SDS011;3083;51.508;7.966;2022-09-09T06:58:27;4.50;;;1.90;;
6105;SDS011;3083;51.508;7.966;2022-09-09T07:01:02;4.77;;;2.00;;
6105;SDS011;3083;51.508;7.966;2022-09-09T07:03:29;4.27;;;1.80;;
6105;SDS011;3083;51.508;7.966;2022-09-09T07:05:56;6.87;;;2.60;;
6105;SDS011;3083;51.508;7.966;2022-09-09T07:08:24;5.03;;;2.00;;
6105;SDS011;3083;51.508;7.966;2022-09-09T07:10:51;8.03;;;2.07;;
6105;SDS011;3083;51.508;7.966;2022-09-09T07:13:20;5.60;;;1.90;;
6105;SDS011;3083;51.508;7.966;2022-09-09T07:15:50;5.90;;;2.07;;
6105;SDS011;3083;51.508;7.966;2022-09-09T07:18:18;5.00;;;2.30;;
6105;SDS011;3083;51.508;7.966;2022-09-09T07:20:52;8.40;;;2.10;;
6105;SDS011;3083;51.508;7.966;2022-09-09T07:23:19;6.40;;;2.00;;
6105;SDS011;3083;51.508;7.966;2022-09-09T07:25:46;6.70;;;2.10;;
6105;SDS011;3083;51.508;7.966;2022-09-09T07:28:13;7.90;;;2.40;;
6105;SDS011;3083;51.508;7.966;2022-09-09T07:30:40;7.47;;;2.00;;
6105;SDS011;3083;51.508;7.966;2022-09-09T07:33:07;4.80;;;2.20;;
6105;SDS011;3083;51.508;7.966;2022-09-09T07:35:37;3.50;;;2.03;;
6105;SDS011;3083;51.508;7.966;2022-09-09T07:38:03;4.80;;;2.30;;
6105;SDS011;3083;51.508;7.966;2022-09-09T07:40:31;6.20;;;2.07;;
6105;SDS011;3083;51.508;7.966;2022-09-09T07:42:58;4.67;;;2.00;;
6105;SDS011;3083;51.508;7.966;2022-09-09T07:45:25;7.03;;;2.30;;
6105;SDS011;3083;51.508;7.966;2022-09-09T07:47:53;6.10;;;2.77;;
6105;SDS011;3083;51.508;7.966;2022-09-09T07:50:21;5.57;;;2.30;;
6105;SDS011;3083;51.508;7.966;2022-09-09T07:52:50;5.47;;;2.67;;
6105;SDS011;3083;51.508;7.966;2022-09-09T07:55:18;7.03;;;2.60;;
6105;SDS011;3083;51.508;7.966;2022-09-09T07:57:45;8.20;;;2.80;;
6105;SDS011;3083;51.508;7.966;2022-09-09T08:00:13;6.17;;;2.20;;
6105;SDS011;3083;51.508;7.966;2022-09-09T08:02:40;5.63;;;2.10;;
6105;SDS011;3083;51.508;7.966;2022-09-09T08:05:07;6.53;;;2.07;;
6105;SDS011;3083;51.508;7.966;2022-09-09T08:07:35;4.47;;;2.33;;
6105;SDS011;3083;51.508;7.966;2022-09-09T08:10:03;7.33;;;2.30;;
6105;SDS011;3083;51.508;7.966;2022-09-09T08:12:31;4.70;;;2.23;;
6105;SDS011;3083;51.508;7.966;2022-09-09T08:14:58;5.10;;;2.20;;
6105;SDS011;3083;51.508;7.966;2022-09-09T08:17:25;5.90;;;2.40;;
6105;SDS011;3083;51.508;7.966;2022-09-09T08:19:52;5.80;;;2.20;;
6105;SDS011;3083;51.508;7.966;2022-09-09T08:22:19;5.70;;;2.23;;
6105;SDS011;3083;51.508;7.966;2022-09-09T08:24:47;7.17;;;2.30;;
6105;SDS011;3083;51.508;7.966;2022-09-09T08:27:15;4.70;;;1.93;;
6105;SDS011;3083;51.508;7.966;2022-09-09T08:29:42;4.57;;;2.20;;
6105;SDS011;3083;51.508;7.966;2022-09-09T08:32:09;8.87;;;2.03;;
6105;SDS011;3083;51.508;7.966;2022-09-09T08:34:36;8.07;;;2.10;;
6105;SDS011;3083;51.508;7.966;2022-09-09T08:37:03;6.60;;;1.93;;
6105;SDS011;3083;51.508;7.966;2022-09-09T08:39:30;6.27;;;2.40;;
6105;SDS011;3083;51.508;7.966;2022-09-09T08:42:05;6.60;;;2.00;;
6105;SDS011;3083;51.508;7.966;2022-09-09T08:44:57;12.90;;;2.37;;
6105;SDS011;3083;51.508;7.966;2022-09-09T08:47:37;3.93;;;1.83;;
6105;SDS011;3083;51.508;7.966;2022-09-09T08:50:13;7.37;;;2.03;;
6105;SDS011;3083;51.508;7.966;2022-09-09T08:52:51;9.13;;;2.10;;
6105;SDS011;3083;51.508;7.966;2022-09-09T08:55:24;6.80;;;2.43;;
6105;SDS011;3083;51.508;7.966;2022-09-09T08:57:57;7.10;;;2.23;;
6105;SDS011;3083;51.508;7.966;2022-09-09T09:00:29;3.60;;;1.90;;
6105;SDS011;3083;51.508;7.966;2022-09-09T09:03:04;4.80;;;2.07;;
6105;SDS011;3083;51.508;7.966;2022-09-09T09:05:42;5.67;;;1.80;;
6105;SDS011;3083;51.508;7.966;2022-09-09T09:08:16;4.83;;;1.97;;
6105;SDS011;3083;51.508;7.966;2022-09-09T09:10:51;5.33;;;1.73;;
6105;SDS011;3083;51.508;7.966;2022-09-09T09:13:26;5.00;;;1.70;;
6105;SDS011;3083;51.508;7.966;2022-09-09T09:16:02;7.47;;;1.80;;
6105;SDS011;3083;51.508;7.966;2022-09-09T09:18:39;8.30;;;2.10;;
6105;SDS011;3083;51.508;7.966;2022-09-09T09:21:08;5.70;;;1.87;;
6105;SDS011;3083;51.508;7.966;2022-09-09T09:23:41;7.10;;;2.13;;
6105;SDS011;3083;51.508;7.966;2022-09-09T09:26:14;4.73;;;1.80;;
6105;SDS011;3083;51.508;7.966;2022-09-09T09:28:42;5.50;;;1.70;;
6105;SDS011;3083;51.508;7.966;2022-09-09T09:31:10;6.90;;;2.30;;
6105;SDS011;3083;51.508;7.966;2022-09-09T09:33:41;6.60;;;1.73;;
6105;SDS011;3083;51.508;7.966;2022-09-09T09:36:13;4.83;;;1.50;;
6105;SDS011;3083;51.508;7.966;2022-09-09T09:38:51;4.07;;;1.60;;
6105;SDS011;3083;51.508;7.966;2022-09-09T09:41:30;8.80;;;2.97;;
6105;SDS011;3083;51.508;7.966;2022-09-09T09:44:00;5.27;;;2.27;;
6105;SDS011;3083;51.508;7.966;2022-09-09T09:46:28;5.07;;;1.93;;
6105;SDS011;3083;51.508;7.966;2022-09-09T09:48:58;6.93;;;1.80;;
6105;SDS011;3083;51.508;7.966;2022-09-09T09:51:26;5.40;;;2.13;;
6105;SDS011;3083;51.508;7.966;2022-09-09T09:54:01;5.47;;;2.33;;
6105;SDS011;3083;51.508;7.966;2022-09-09T09:56:35;5.93;;;1.90;;
6105;SDS011;3083;51.508;7.966;2022-09-09T09:59:04;4.13;;;2.00;;
6105;SDS011;3083;51.508;7.966;2022-09-09T10:01:31;3.50;;;1.50;;
6105;SDS011;3083;51.508;7.966;2022-09-09T10:04:00;4.60;;;1.87;;
6105;SDS011;3083;51.508;7.966;2022-09-09T10:06:30;3.50;;;1.77;;
6105;SDS011;3083;51.508;7.966;2022-09-09T10:08:58;3.97;;;1.70;;
6105;SDS011;3083;51.508;7.966;2022-09-09T10:11:29;5.80;;;2.00;;
6105;SDS011;3083;51.508;7.966;2022-09-09T10:14:08;4.60;;;1.77;;
6105;SDS011;3083;51.508;7.966;2022-09-09T10:16:45;6.53;;;1.77;;
6105;SDS011;3083;51.508;7.966;2022-09-09T10:19:28;8.00;;;1.83;;
6105;SDS011;3083;51.508;7.966;2022-09-09T10:22:01;4.50;;;1.70;;
6105;SDS011;3083;51.508;7.966;2022-09-09T10:27:32;9.67;;;2.10;;
6105;SDS011;3083;51.508;7.966;2022-09-09T10:30:12;7.17;;;1.63;;
6105;SDS011;3083;51.508;7.966;2022-09-09T10:32:46;6.50;;;1.87;;
6105;SDS011;3083;51.508;7.966;2022-09-09T10:35:24;4.60;;;1.60;;
6105;SDS011;3083;51.508;7.966;2022-09-09T10:38:09;7.70;;;1.67;;
6105;SDS011;3083;51.508;7.966;2022-09-09T10:40:42;4.57;;;1.90;;
6105;SDS011;3083;51.508;7.966;2022-09-09T10:43:18;5.73;;;2.00;;
6105;SDS011;3083;51.508;7.966;2022-09-09T10:45:56;8.20;;;2.20;;
6105;SDS011;3083;51.508;7.966;2022-09-09T10:48:32;3.77;;;1.80;;
6105;SDS011;3083;51.508;7.966;2022-09-09T10:51:14;4.47;;;1.60;;
6105;SDS011;3083;51.508;7.966;2022-09-09T10:53:52;4.80;;;1.80;;
6105;SDS011;3083;51.508;7.966;2022-09-09T10:56:31;5.83;;;2.10;;
6105;SDS011;3083;51.508;7.966;2022-09-09T10:59:00;4.10;;;1.93;;
6105;SDS011;3083;51.508;7.966;2022-09-09T11:01:33;4.77;;;1.73;;
6105;SDS011;3083;51.508;7.966;2022-09-09T11:04:05;5.57;;;1.90;;
6105;SDS011;3083;51.508;7.966;2022-09-09T11:06:41;6.10;;;1.80;;
6105;SDS011;3083;51.508;7.966;2022-09-09T11:09:14;4.50;;;1.70;;
6105;SDS011;3083;51.508;7.966;2022-09-09T11:11:44;4.53;;;1.60;;
6105;SDS011;3083;51.508;7.966;2022-09-09T11:14:18;5.23;;;1.90;;
6105;SDS011;3083;51.508;7.966;2022-09-09T11:16:51;5.70;;;1.60;;
6105;SDS011;3083;51.508;7.966;2022-09-09T11:19:24;3.47;;;1.67;;
6105;SDS011;3083;51.508;7.966;2022-09-09T11:21:56;4.30;;;1.40;;
6105;SDS011;3083;51.508;7.966;2022-09-09T11:24:28;3.90;;;1.37;;
6105;SDS011;3083;51.508;7.966;2022-09-09T11:27:00;4.23;;;1.50;;
6105;SDS011;3083;51.508;7.966;2022-09-09T11:29:36;4.40;;;1.50;;
6105;SDS011;3083;51.508;7.966;2022-09-09T11:32:34;6.43;;;1.60;;
6105;SDS011;3083;51.508;7.966;2022-09-09T11:35:29;3.97;;;1.40;;
6105;SDS011;3083;51.508;7.966;2022-09-09T11:40:47;4.40;;;1.70;;
6105;SDS011;3083;51.508;7.966;2022-09-09T11:43:25;5.07;;;1.80;;
6105;SDS011;3083;51.508;7.966;2022-09-09T11:45:55;6.73;;;1.80;;
6105;SDS011;3083;51.508;7.966;2022-09-09T11:48:28;6.70;;;1.80;;
6105;SDS011;3083;51.508;7.966;2022-09-09T11:51:00;5.73;;;2.77;;
6105;SDS011;3083;51.508;7.966;2022-09-09T11:53:32;6.43;;;1.93;;
6105;SDS011;3083;51.508;7.966;2022-09-09T11:56:00;4.00;;;1.73;;
6105;SDS011;3083;51.508;7.966;2022-09-09T11:58:39;5.30;;;1.30;;
6105;SDS011;3083;51.508;7.966;2022-09-09T12:01:14;3.53;;;1.30;;
6105;SDS011;3083;51.508;7.966;2022-09-09T12:06:53;5.50;;;1.30;;
6105;SDS011;3083;51.508;7.966;2022-09-09T12:09:25;2.77;;;1.20;;
6105;SDS011;3083;51.508;7.966;2022-09-09T12:14:57;3.63;;;1.50;;
6105;SDS011;3083;51.508;7.966;2022-09-09T12:17:26;5.87;;;1.80;;
6105;SDS011;3083;51.508;7.966;2022-09-09T12:20:02;4.03;;;1.30;;
6105;SDS011;3083;51.508;7.966;2022-09-09T12:22:37;3.60;;;1.40;;
6105;SDS011;3083;51.508;7.966;2022-09-09T12:25:16;4.83;;;1.50;;
6105;SDS011;3083;51.508;7.966;2022-09-09T12:27:52;5.03;;;1.60;;
6105;SDS011;3083;51.508;7.966;2022-09-09T12:30:32;4.13;;;1.40;;
6105;SDS011;3083;51.508;7.966;2022-09-09T12:33:02;3.57;;;1.53;;
6105;SDS011;3083;51.508;7.966;2022-09-09T12:35:34;5.90;;;1.57;;
6105;SDS011;3083;51.508;7.966;2022-09-09T12:38:05;3.70;;;1.70;;
6105;SDS011;3083;51.508;7.966;2022-09-09T12:40:37;4.13;;;1.40;;
6105;SDS011;3083;51.508;7.966;2022-09-09T12:43:15;5.20;;;1.70;;
6105;SDS011;3083;51.508;7.966;2022-09-09T12:45:46;3.30;;;1.43;;
6105;SDS011;3083;51.508;7.966;2022-09-09T12:48:15;4.30;;;1.40;;
6105;SDS011;3083;51.508;7.966;2022-09-09T12:50:45;5.30;;;1.50;;
6105;SDS011;3083;51.508;7.966;2022-09-09T12:53:21;4.10;;;1.40;;
6105;SDS011;3083;51.508;7.966;2022-09-09T12:55:52;6.03;;;1.50;;
6105;SDS011;3083;51.508;7.966;2022-09-09T12:58:22;3.00;;;1.43;;
6105;SDS011;3083;51.508;7.966;2022-09-09T13:00:50;2.60;;;1.30;;
6105;SDS011;3083;51.508;7.966;2022-09-09T13:03:21;5.20;;;1.70;;
6105;SDS011;3083;51.508;7.966;2022-09-09T13:05:48;3.53;;;1.50;;
6105;SDS011;3083;51.508;7.966;2022-09-09T13:08:17;4.80;;;1.90;;
6105;SDS011;3083;51.508;7.966;2022-09-09T13:10:46;6.53;;;1.47;;
6105;SDS011;3083;51.508;7.966;2022-09-09T13:13:20;5.53;;;1.37;;
6105;SDS011;3083;51.508;7.966;2022-09-09T13:15:49;2.63;;;1.10;;
6105;SDS011;3083;51.508;7.966;2022-09-09T13:18:17;2.87;;;1.30;;
6105;SDS011;3083;51.508;7.966;2022-09-09T13:20:48;3.50;;;1.67;;
6105;SDS011;3083;51.508;7.966;2022-09-09T13:23:17;4.43;;;1.43;;
6105;SDS011;3083;51.508;7.966;2022-09-09T13:25:52;3.80;;;1.40;;
6105;SDS011;3083;51.508;7.966;2022-09-09T13:28:21;4.07;;;1.30;;
6105;SDS011;3083;51.508;7.966;2022-09-09T13:30:57;4.53;;;1.40;;
6105;SDS011;3083;51.508;7.966;2022-09-09T13:33:29;3.43;;;1.53;;
6105;SDS011;3083;51.508;7.966;2022-09-09T13:36:00;4.93;;;1.50;;
6105;SDS011;3083;51.508;7.966;2022-09-09T13:38:32;3.80;;;1.43;;
6105;SDS011;3083;51.508;7.966;2022-09-09T13:41:03;4.57;;;1.73;;
6105;SDS011;3083;51.508;7.966;2022-09-09T13:43:34;4.87;;;1.53;;
6105;SDS011;3083;51.508;7.966;2022-09-09T13:46:04;4.60;;;1.50;;
6105;SDS011;3083;51.508;7.966;2022-09-09T13:48:32;6.07;;;1.80;;
6105;SDS011;3083;51.508;7.966;2022-09-09T13:51:00;3.83;;;1.50;;
6105;SDS011;3083;51.508;7.966;2022-09-09T13:53:31;6.43;;;1.50;;
6105;SDS011;3083;51.508;7.966;2022-09-09T13:55:58;3.60;;;1.50;;
6105;SDS011;3083;51.508;7.966;2022-09-09T13:58:26;4.27;;;1.57;;
6105;SDS011;3083;51.508;7.966;2022-09-09T14:00:54;3.33;;;1.20;;
6105;SDS011;3083;51.508;7.966;2022-09-09T14:03:22;3.20;;;1.23;;
6105;SDS011;3083;51.508;7.966;2022-09-09T14:05:49;4.63;;;1.57;;
6105;SDS011;3083;51.508;7.966;2022-09-09T14:08:20;7.80;;;1.80;;
6105;SDS011;3083;51.508;7.966;2022-09-09T14:10:51;3.30;;;1.30;;
6105;SDS011;3083;51.508;7.966;2022-09-09T14:13:20;2.87;;;1.30;;
6105;SDS011;3083;51.508;7.966;2022-09-09T14:15:48;3.03;;;1.17;;
6105;SDS011;3083;51.508;7.966;2022-09-09T14:18:16;5.00;;;1.33;;
6105;SDS011;3083;51.508;7.966;2022-09-09T14:20:43;2.87;;;1.20;;
6105;SDS011;3083;51.508;7.966;2022-09-09T14:23:10;3.57;;;1.60;;
6105;SDS011;3083;51.508;7.966;2022-09-09T14:25:39;3.00;;;1.30;;
6105;SDS011;3083;51.508;7.966;2022-09-09T14:28:10;3.20;;;1.23;;
6105;SDS011;3083;51.508;7.966;2022-09-09T14:30:38;2.80;;;1.33;;
6105;SDS011;3083;51.508;7.966;2022-09-09T14:33:06;6.80;;;1.37;;
6105;SDS011;3083;51.508;7.966;2022-09-09T14:35:34;3.40;;;1.40;;
6105;SDS011;3083;51.508;7.966;2022-09-09T14:38:01;5.17;;;1.50;;
6105;SDS011;3083;51.508;7.966;2022-09-09T14:40:29;3.87;;;1.40;;
6105;SDS011;3083;51.508;7.966;2022-09-09T14:42:56;3.50;;;1.37;;
6105;SDS011;3083;51.508;7.966;2022-09-09T14:45:25;5.63;;;1.40;;
6105;SDS011;3083;51.508;7.966;2022-09-09T14:47:52;3.97;;;1.50;;
6105;SDS011;3083;51.508;7.966;2022-09-09T14:50:19;4.67;;;1.50;;
6105;SDS011;3083;51.508;7.966;2022-09-09T14:52:46;3.93;;;1.40;;
6105;SDS011;3083;51.508;7.966;2022-09-09T14:55:14;4.07;;;1.63;;
6105;SDS011;3083;51.508;7.966;2022-09-09T14:57:41;3.20;;;1.13;;
6105;SDS011;3083;51.508;7.966;2022-09-09T15:00:08;3.03;;;1.50;;
6105;SDS011;3083;51.508;7.966;2022-09-09T15:02:38;2.90;;;1.27;;
6105;SDS011;3083;51.508;7.966;2022-09-09T15:05:05;2.67;;;1.20;;
6105;SDS011;3083;51.508;7.966;2022-09-09T15:07:33;2.70;;;1.30;;
6105;SDS011;3083;51.508;7.966;2022-09-09T15:10:01;3.20;;;1.57;;
6105;SDS011;3083;51.508;7.966;2022-09-09T15:12:28;3.90;;;1.87;;
6105;SDS011;3083;51.508;7.966;2022-09-09T15:14:55;3.57;;;1.33;;
6105;SDS011;3083;51.508;7.966;2022-09-09T15:17:22;3.87;;;1.77;;
6105;SDS011;3083;51.508;7.966;2022-09-09T15:19:53;3.23;;;1.40;;
6105;SDS011;3083;51.508;7.966;2022-09-09T15:22:20;4.03;;;1.63;;
6105;SDS011;3083;51.508;7.966;2022-09-09T15:24:49;4.27;;;1.83;;
6105;SDS011;3083;51.508;7.966;2022-09-09T15:27:16;6.93;;;1.67;;
6105;SDS011;3083;51.508;7.966;2022-09-09T15:29:44;8.40;;;1.90;;
6105;SDS011;3083;51.508;7.966;2022-09-09T15:32:11;3.43;;;1.97;;
6105;SDS011;3083;51.508;7.966;2022-09-09T15:34:38;3.47;;;1.60;;
6105;SDS011;3083;51.508;7.966;2022-09-09T15:37:07;4.30;;;1.90;;
6105;SDS011;3083;51.508;7.966;2022-09-09T15:39:38;3.23;;;1.50;;
6105;SDS011;3083;51.508;7.966;2022-09-09T15:42:05;5.93;;;1.80;;
6105;SDS011;3083;51.508;7.966;2022-09-09T15:44:38;3.17;;;1.30;;
6105;SDS011;3083;51.508;7.966;2022-09-09T15:47:07;5.40;;;1.57;;
6105;SDS011;3083;51.508;7.966;2022-09-09T15:49:36;3.50;;;1.57;;